Terminal Aerodrome Forecast
Issued by NWS Billings, MT

Home | Current Version | Previous Version | Graphics & Text | Print | Product List | Glossary On
Versions: 1 2 3 4 5 6 7 8 9 10 11 12 13 14 15
000
FTUS45 KBYZ 181729
TAFMLS
TAF
KMLS 181729Z 1818/1918 15010KT P6SM SCT110 BKN200
     FM190300 VRB05KT P6SM BKN110
     FM190700 30011G22KT P6SM VCSH SCT070 OVC100
     FM191300 33010KT P6SM -SHRA BKN050=

USA.gov is the U.S. government's official web portal to all federal, state and local government web resources and services.